createdAt,value
2022-10-18T00:00:20.263Z,8.41
2022-10-18T00:02:47.319Z,8.39
2022-10-18T00:05:14.316Z,8.32
2022-10-18T00:07:41.272Z,8.30
2022-10-18T00:10:09.090Z,8.32
2022-10-18T00:12:37.284Z,8.34
2022-10-18T00:15:07.185Z,8.33
2022-10-18T00:17:35.856Z,8.24
2022-10-18T00:20:02.840Z,8.07
2022-10-18T00:22:30.117Z,7.90
2022-10-18T00:24:57.354Z,7.82
2022-10-18T00:27:24.343Z,7.71
2022-10-18T00:29:54.259Z,7.66
2022-10-18T00:32:21.352Z,7.67
2022-10-18T00:34:48.893Z,7.73
2022-10-18T00:37:16.234Z,7.77
2022-10-18T00:39:43.506Z,7.76
2022-10-18T00:42:21.814Z,7.80
2022-10-18T00:45:22.396Z,7.87
2022-10-18T00:47:55.562Z,7.90
2022-10-18T00:50:23.651Z,7.88
2022-10-18T00:52:55.761Z,7.87
2022-10-18T00:55:23.062Z,7.81
2022-10-18T00:57:50.513Z,7.77
2022-10-18T01:00:18.556Z,7.74
2022-10-18T01:02:46.911Z,7.70
2022-10-18T01:05:16.869Z,7.68
2022-10-18T01:08:28.660Z,7.65
2022-10-18T01:11:07.714Z,7.58
2022-10-18T01:14:21.186Z,7.55
2022-10-18T01:17:15.458Z,7.45
2022-10-18T01:20:19.101Z,7.38
2022-10-18T01:22:55.225Z,7.31
2022-10-18T01:25:40.492Z,7.29
2022-10-18T01:28:49.382Z,7.27
2022-10-18T01:31:33.107Z,7.23
2022-10-18T01:34:04.224Z,7.21
2022-10-18T01:36:34.255Z,7.17
2022-10-18T01:39:06.962Z,7.13
2022-10-18T01:41:37.859Z,7.09
2022-10-18T01:44:08.541Z,7.04
2022-10-18T01:46:37.546Z,7.01
2022-10-18T01:49:05.238Z,6.96
2022-10-18T01:51:33.197Z,6.91
2022-10-18T01:54:00.576Z,6.86
2022-10-18T01:57:11.362Z,6.86
2022-10-18T02:00:26.353Z,6.89
2022-10-18T02:03:23.735Z,6.92
2022-10-18T02:06:02.236Z,6.92
2022-10-18T02:08:35.275Z,6.94
2022-10-18T02:11:10.850Z,6.97
2022-10-18T02:13:42.348Z,6.99
2022-10-18T02:16:17.208Z,7.00
2022-10-18T02:18:52.200Z,7.01
2022-10-18T02:21:21.501Z,7.00
2022-10-18T02:23:49.165Z,6.99
2022-10-18T02:26:17.090Z,6.99
2022-10-18T02:28:44.846Z,6.96
2022-10-18T02:31:38.232Z,6.99
2022-10-18T02:34:19.984Z,7.01
2022-10-18T02:36:52.228Z,7.03
2022-10-18T02:39:34.457Z,7.03
2022-10-18T02:42:06.810Z,7.05
2022-10-18T02:44:37.811Z,7.10
2022-10-18T02:47:06.352Z,7.13
2022-10-18T02:49:33.315Z,7.13
2022-10-18T02:52:00.348Z,7.11
2022-10-18T02:54:27.356Z,7.07
2022-10-18T02:56:54.366Z,7.02
2022-10-18T02:59:21.241Z,6.96
2022-10-18T03:01:48.187Z,6.89
2022-10-18T03:04:15.494Z,6.87
2022-10-18T03:06:42.473Z,6.81
2022-10-18T03:09:10.178Z,6.80
2022-10-18T03:11:37.059Z,6.81
2022-10-18T03:14:04.036Z,6.75
2022-10-18T03:16:31.610Z,6.70
2022-10-18T03:18:58.581Z,6.66
2022-10-18T03:21:25.575Z,6.66
2022-10-18T03:23:52.492Z,6.66
2022-10-18T03:26:19.413Z,6.67
2022-10-18T03:28:46.344Z,6.66
2022-10-18T03:31:13.374Z,6.64
2022-10-18T03:33:40.315Z,6.64
2022-10-18T03:36:07.324Z,6.63
2022-10-18T03:38:34.216Z,6.58
2022-10-18T03:41:01.145Z,6.57
2022-10-18T03:43:28.062Z,6.52
2022-10-18T03:45:54.999Z,6.50
2022-10-18T03:48:21.982Z,6.49
2022-10-18T03:50:48.893Z,6.52
2022-10-18T03:53:15.843Z,6.56
2022-10-18T03:55:42.787Z,6.57
2022-10-18T03:58:09.809Z,6.58
2022-10-18T04:00:36.750Z,6.59
2022-10-18T04:03:03.989Z,6.58
2022-10-18T04:05:31.574Z,6.58
2022-10-18T04:07:58.695Z,6.60
2022-10-18T04:10:26.179Z,6.59
2022-10-18T04:12:53.232Z,6.61
2022-10-18T04:15:20.211Z,6.62
2022-10-18T04:17:47.211Z,6.58
2022-10-18T04:20:14.341Z,6.49
2022-10-18T04:22:41.347Z,6.43
2022-10-18T04:25:08.461Z,6.43
2022-10-18T04:27:36.051Z,6.39
2022-10-18T04:30:03.101Z,6.38
2022-10-18T04:32:30.053Z,6.37
2022-10-18T04:34:56.995Z,6.37
2022-10-18T04:37:23.929Z,6.36
2022-10-18T04:39:53.530Z,6.39
2022-10-18T04:42:21.514Z,6.39
2022-10-18T04:44:48.790Z,6.33
2022-10-18T04:47:16.301Z,6.23
2022-10-18T04:49:43.308Z,6.17
2022-10-18T04:52:10.512Z,6.09
2022-10-18T04:54:37.612Z,6.02
2022-10-18T04:57:04.839Z,5.96
2022-10-18T04:59:31.948Z,5.91
2022-10-18T05:01:58.927Z,5.87
2022-10-18T05:04:25.957Z,5.85
2022-10-18T05:06:52.955Z,5.88
2022-10-18T05:09:22.409Z,5.92
2022-10-18T05:11:49.392Z,6.00
2022-10-18T05:14:19.150Z,6.08
2022-10-18T05:16:46.365Z,6.20
2022-10-18T05:19:13.420Z,6.34
2022-10-18T05:21:40.600Z,6.46
2022-10-18T05:24:07.779Z,6.60
2022-10-18T05:26:34.669Z,6.75
2022-10-18T05:29:01.977Z,6.86
2022-10-18T05:31:29.215Z,6.94
2022-10-18T05:33:56.298Z,7.05
2022-10-18T05:36:23.369Z,7.14
2022-10-18T05:38:50.331Z,7.22
2022-10-18T05:41:17.212Z,7.28
2022-10-18T05:43:44.209Z,7.23
2022-10-18T05:46:15.736Z,7.20
2022-10-18T05:48:44.799Z,7.28
2022-10-18T05:51:12.019Z,7.35
2022-10-18T05:53:39.243Z,7.41
2022-10-18T05:56:07.412Z,7.42
2022-10-18T05:58:34.516Z,7.46
2022-10-18T06:01:03.296Z,7.51
2022-10-18T06:03:33.052Z,7.54
2022-10-18T06:06:02.093Z,7.59
2022-10-18T06:08:29.294Z,7.65
2022-10-18T06:10:56.346Z,7.70
2022-10-18T06:13:23.824Z,7.74
2022-10-18T06:15:51.154Z,7.82
2022-10-18T06:18:18.044Z,7.87
2022-10-18T06:20:44.933Z,7.97
2022-10-18T06:23:11.943Z,8.03
2022-10-18T06:25:38.890Z,8.11
2022-10-18T06:28:07.950Z,8.19
2022-10-18T06:30:37.264Z,8.26
2022-10-18T06:33:04.330Z,8.35
2022-10-18T06:35:31.446Z,8.46
2022-10-18T06:37:58.523Z,8.56
2022-10-18T06:40:25.471Z,8.63
2022-10-18T06:43:00.126Z,8.69
2022-10-18T06:45:33.733Z,8.78
2022-10-18T06:48:00.694Z,8.79
2022-10-18T06:50:27.782Z,8.79
2022-10-18T06:52:54.798Z,8.83
2022-10-18T06:55:21.732Z,8.86
2022-10-18T06:57:48.845Z,8.94
2022-10-18T07:00:16.046Z,9.04
2022-10-18T07:02:43.040Z,9.08
2022-10-18T07:05:11.390Z,9.18
2022-10-18T07:07:38.760Z,9.29
2022-10-18T07:10:07.131Z,9.37
2022-10-18T07:12:34.317Z,9.28
2022-10-18T07:15:03.484Z,9.34
2022-10-18T07:17:34.106Z,9.44
2022-10-18T07:20:04.527Z,9.56
2022-10-18T07:22:31.490Z,9.57
2022-10-18T07:24:58.553Z,9.49
2022-10-18T07:27:25.514Z,9.54
2022-10-18T07:29:52.491Z,9.64
2022-10-18T07:32:19.467Z,9.66
2022-10-18T07:34:46.390Z,9.74
2022-10-18T07:37:13.413Z,9.74
2022-10-18T07:39:40.281Z,9.75
2022-10-18T07:42:07.170Z,9.90
2022-10-18T07:44:34.108Z,9.97
2022-10-18T07:47:01.048Z,10.07
2022-10-18T07:49:28.126Z,10.17
2022-10-18T07:51:55.054Z,10.33
2022-10-18T07:54:22.669Z,10.38
2022-10-18T07:56:49.584Z,10.47
2022-10-18T07:59:16.525Z,10.49
2022-10-18T08:01:43.693Z,10.56
2022-10-18T08:04:15.491Z,10.59
2022-10-18T08:06:43.804Z,10.60
2022-10-18T08:09:10.672Z,10.69
2022-10-18T08:11:37.798Z,10.84
2022-10-18T08:14:04.873Z,10.99
2022-10-18T08:18:59.754Z,11.18
2022-10-18T08:21:27.018Z,11.39
2022-10-18T08:23:54.076Z,11.58
2022-10-18T08:26:23.228Z,11.72
2022-10-18T08:28:58.345Z,11.84
2022-10-18T08:31:31.221Z,12.05
2022-10-18T08:33:58.358Z,12.28
2022-10-18T08:36:25.460Z,12.66
2022-10-18T08:38:52.707Z,12.98
2022-10-18T08:41:46.419Z,13.15
2022-10-18T08:44:25.256Z,13.27
2022-10-18T08:47:06.048Z,13.38
2022-10-18T08:49:48.330Z,13.45
2022-10-18T08:52:37.443Z,13.51
2022-10-18T08:55:23.115Z,13.65
2022-10-18T08:57:51.362Z,13.76
2022-10-18T09:00:23.434Z,13.86
2022-10-18T09:03:13.740Z,13.97
2022-10-18T09:05:50.354Z,14.11
2022-10-18T09:08:41.203Z,14.29
2022-10-18T09:11:35.124Z,14.62
2022-10-18T09:15:04.714Z,14.50
2022-10-18T09:17:57.560Z,14.56
2022-10-18T09:20:28.759Z,14.72
2022-10-18T09:23:15.793Z,14.85
2022-10-18T09:25:54.106Z,15.01
2022-10-18T09:29:03.426Z,15.13
2022-10-18T09:31:46.689Z,15.33
2022-10-18T09:34:51.075Z,15.46
2022-10-18T09:37:20.798Z,15.64
2022-10-18T09:39:50.347Z,15.84
2022-10-18T09:42:34.690Z,16.02
2022-10-18T09:45:32.068Z,16.30
2022-10-18T09:48:19.278Z,16.54
2022-10-18T09:50:55.211Z,16.63
2022-10-18T09:53:57.522Z,16.84
2022-10-18T09:56:30.020Z,17.04
2022-10-18T09:58:57.291Z,17.17
2022-10-18T10:01:26.770Z,17.33
2022-10-18T10:03:53.988Z,17.56
2022-10-18T10:06:32.331Z,17.69
2022-10-18T10:09:08.333Z,17.84
2022-10-18T10:11:53.738Z,17.99
2022-10-18T10:14:26.788Z,18.15
2022-10-18T10:17:07.222Z,18.28
2022-10-18T10:20:25.128Z,18.43
2022-10-18T10:22:52.913Z,18.61
2022-10-18T10:25:32.991Z,18.83
2022-10-18T10:28:05.345Z,19.12
2022-10-18T10:30:35.852Z,19.23
2022-10-18T10:33:03.602Z,19.39
2022-10-18T10:35:56.341Z,19.62
2022-10-18T10:38:25.778Z,19.78
2022-10-18T10:40:53.899Z,19.97
2022-10-18T10:43:39.753Z,20.23
2022-10-18T10:46:11.972Z,20.42
2022-10-18T10:49:14.175Z,20.57
2022-10-18T10:51:43.941Z,20.73
2022-10-18T10:54:16.981Z,20.92
2022-10-18T10:57:08.681Z,21.21
2022-10-18T11:00:04.989Z,21.45
2022-10-18T11:02:34.831Z,21.47
2022-10-18T11:05:23.292Z,21.68
2022-10-18T11:07:52.903Z,21.82
2022-10-18T11:10:24.080Z,21.97
2022-10-18T11:13:28.500Z,22.28
2022-10-18T11:16:06.111Z,22.40
2022-10-18T11:18:35.611Z,22.56
2022-10-18T11:21:11.566Z,22.91
2022-10-18T11:23:40.744Z,22.81
2022-10-18T11:26:52.089Z,23.00
2022-10-18T11:29:46.365Z,23.31
2022-10-18T11:32:54.764Z,23.50
2022-10-18T11:35:38.948Z,23.66
2022-10-18T11:38:49.973Z,23.54
2022-10-18T11:41:22.757Z,23.71
2022-10-18T11:44:03.692Z,23.91
2022-10-18T11:46:49.440Z,24.19
2022-10-18T11:49:35.217Z,24.55
2022-10-18T11:52:48.242Z,24.81
2022-10-18T11:55:47.642Z,25.01
2022-10-18T11:58:57.247Z,25.28
2022-10-18T12:01:47.601Z,25.46
2022-10-18T12:04:18.922Z,25.62
2022-10-18T12:06:49.457Z,25.67
2022-10-18T12:12:21.541Z,25.99
2022-10-18T12:14:58.204Z,26.12
2022-10-18T12:17:51.054Z,26.35
2022-10-18T12:20:40.495Z,26.43
2022-10-18T12:23:15.502Z,26.65
2022-10-18T12:25:48.196Z,26.84
2022-10-18T12:28:52.664Z,26.96
2022-10-18T12:31:34.600Z,27.10
2022-10-18T12:34:10.912Z,27.09
2022-10-18T12:37:18.325Z,27.15
2022-10-18T12:40:09.413Z,27.14
2022-10-18T12:42:43.189Z,27.30
2022-10-18T12:45:50.986Z,27.26
2022-10-18T12:48:33.982Z,27.25
2022-10-18T12:51:17.613Z,27.27
2022-10-18T12:53:47.415Z,27.32
2022-10-18T12:56:51.009Z,27.36
2022-10-18T12:59:41.612Z,27.47
2022-10-18T13:02:09.431Z,27.55
2022-10-18T13:04:38.458Z,27.65
2022-10-18T13:07:41.093Z,27.72
2022-10-18T13:10:35.287Z,27.81
2022-10-18T13:13:39.095Z,27.94
2022-10-18T13:16:22.740Z,28.09
2022-10-18T13:19:38.937Z,28.09
2022-10-18T13:22:42.861Z,28.29
2022-10-18T13:26:00.611Z,28.52
2022-10-18T13:28:56.636Z,28.62
2022-10-18T13:31:40.407Z,28.63
2022-10-18T13:34:40.898Z,28.71
2022-10-18T13:37:25.835Z,28.76
2022-10-18T13:40:22.765Z,28.96
2022-10-18T13:42:49.898Z,28.94
2022-10-18T13:45:55.800Z,28.99
2022-10-18T13:48:52.810Z,29.08
2022-10-18T13:52:01.547Z,29.14
2022-10-18T13:55:01.594Z,29.18
2022-10-18T13:58:14.096Z,29.20
2022-10-18T14:01:19.599Z,29.30
2022-10-18T14:04:17.247Z,29.35
2022-10-18T14:06:47.522Z,29.45
2022-10-18T14:12:52.381Z,29.87
2022-10-18T14:15:34.927Z,30.10
2022-10-18T14:18:19.055Z,30.47
2022-10-18T14:21:14.170Z,31.42
2022-10-18T14:23:44.918Z,32.95
2022-10-18T14:26:21.149Z,34.29
2022-10-18T14:29:22.763Z,35.66
2022-10-18T14:31:54.471Z,36.97
2022-10-18T14:34:22.193Z,37.74
2022-10-18T14:36:50.040Z,38.23
2022-10-18T14:39:24.453Z,38.62
2022-10-18T14:41:54.205Z,38.79
2022-10-18T14:44:27.296Z,38.97
2022-10-18T14:47:15.051Z,39.11
2022-10-18T14:49:46.274Z,39.43
2022-10-18T14:52:21.959Z,39.53
2022-10-18T14:54:51.142Z,39.51
2022-10-18T14:57:37.800Z,39.45
2022-10-18T15:00:09.019Z,39.31
2022-10-18T15:02:38.772Z,39.19
2022-10-18T15:05:24.772Z,38.73
2022-10-18T15:07:52.691Z,38.66
2022-10-18T15:10:24.720Z,38.49
2022-10-18T15:13:09.200Z,38.16
2022-10-18T15:15:38.096Z,37.56
2022-10-18T15:18:06.788Z,36.84
2022-10-18T15:20:43.030Z,35.29
2022-10-18T15:23:25.973Z,33.56
2022-10-18T15:26:02.151Z,32.22
2022-10-18T15:28:37.882Z,30.98
2022-10-18T15:31:05.534Z,29.78
2022-10-18T15:33:36.219Z,28.75
2022-10-18T15:36:26.099Z,27.76
2022-10-18T15:38:53.173Z,27.04
2022-10-18T15:41:52.731Z,26.37
2022-10-18T15:44:34.762Z,25.73
2022-10-18T15:47:21.327Z,25.23
2022-10-18T15:49:56.761Z,24.76
2022-10-18T15:52:39.328Z,24.29
2022-10-18T15:55:52.480Z,23.93
2022-10-18T15:58:26.120Z,23.51
2022-10-18T16:00:57.776Z,23.23
2022-10-18T16:03:25.461Z,22.91
2022-10-18T16:06:07.395Z,22.58
2022-10-18T16:08:41.119Z,22.37
2022-10-18T16:11:16.600Z,22.16
2022-10-18T16:13:44.242Z,21.90
2022-10-18T16:16:17.257Z,21.54
2022-10-18T16:18:44.322Z,21.29
2022-10-18T16:21:38.200Z,21.05
2022-10-18T16:24:05.938Z,20.81
2022-10-18T16:26:33.521Z,20.58
2022-10-18T16:29:01.002Z,20.41
2022-10-18T16:31:30.877Z,20.24
2022-10-18T16:33:58.779Z,20.08
2022-10-18T16:36:29.270Z,19.85
2022-10-18T16:38:58.018Z,19.65
2022-10-18T16:41:24.972Z,19.50
2022-10-18T16:43:52.354Z,19.37
2022-10-18T16:46:21.948Z,19.25
2022-10-18T16:48:51.027Z,19.07
2022-10-18T16:51:18.139Z,18.90
2022-10-18T16:53:45.403Z,18.80
2022-10-18T16:56:18.175Z,18.68
2022-10-18T16:58:46.180Z,18.58
2022-10-18T17:01:19.040Z,18.47
2022-10-18T17:03:46.823Z,18.30
2022-10-18T17:06:22.977Z,18.16
2022-10-18T17:08:51.172Z,18.03
2022-10-18T17:11:19.272Z,17.92
2022-10-18T17:13:46.253Z,17.80
2022-10-18T17:16:26.767Z,17.61
2022-10-18T17:18:53.890Z,17.24
2022-10-18T17:21:21.359Z,16.84
2022-10-18T17:23:48.910Z,16.50
2022-10-18T17:26:28.936Z,16.25
2022-10-18T17:29:00.259Z,16.11
2022-10-18T17:31:28.573Z,15.95
2022-10-18T17:33:55.689Z,15.82
2022-10-18T17:36:22.710Z,15.68
2022-10-18T17:38:53.630Z,15.54
2022-10-18T17:41:20.904Z,15.42
2022-10-18T17:43:48.547Z,15.36
2022-10-18T17:46:17.980Z,15.31
2022-10-18T17:48:45.573Z,15.16
2022-10-18T17:51:15.482Z,14.83
2022-10-18T17:53:42.809Z,14.62
2022-10-18T17:56:11.267Z,14.51
2022-10-18T17:58:38.525Z,14.38
2022-10-18T18:01:17.277Z,14.23
2022-10-18T18:03:44.530Z,14.12
2022-10-18T18:06:23.304Z,14.12
2022-10-18T18:08:50.767Z,14.08
2022-10-18T18:11:18.191Z,14.04
2022-10-18T18:13:45.356Z,14.00
2022-10-18T18:16:30.580Z,13.79
2022-10-18T18:18:58.976Z,13.68
2022-10-18T18:21:26.901Z,13.62
2022-10-18T18:23:54.742Z,13.57
2022-10-18T18:26:22.678Z,13.46
2022-10-18T18:28:49.815Z,13.39
2022-10-18T18:31:25.059Z,13.35
2022-10-18T18:33:53.530Z,13.32
2022-10-18T18:36:20.805Z,13.26
2022-10-18T18:38:48.463Z,13.22
2022-10-18T18:41:20.973Z,13.21
2022-10-18T18:43:54.247Z,13.19
2022-10-18T18:46:22.581Z,13.15
2022-10-18T18:48:49.834Z,13.13
2022-10-18T18:51:19.297Z,13.11
2022-10-18T18:53:47.398Z,13.05
2022-10-18T18:56:17.868Z,13.03
2022-10-18T18:58:46.132Z,12.94
2022-10-18T19:01:33.066Z,12.80
2022-10-18T19:04:00.525Z,12.74
2022-10-18T19:06:30.178Z,12.68
2022-10-18T19:09:01.600Z,12.57
2022-10-18T19:11:32.497Z,12.53
2022-10-18T19:14:00.943Z,12.56
2022-10-18T19:16:39.595Z,12.53
2022-10-18T19:19:17.715Z,12.47
2022-10-18T19:21:46.990Z,12.36
2022-10-18T19:24:14.126Z,12.19
2022-10-18T19:27:05.942Z,12.02
2022-10-18T19:29:35.091Z,11.94
2022-10-18T19:32:08.686Z,11.94
2022-10-18T19:34:35.975Z,11.95
2022-10-18T19:37:03.487Z,11.99
2022-10-18T19:39:32.515Z,11.97
2022-10-18T19:42:03.460Z,11.96
2022-10-18T19:44:32.179Z,11.92
2022-10-18T19:46:59.607Z,11.80
2022-10-18T19:49:28.726Z,11.76
2022-10-18T19:51:56.631Z,11.76
2022-10-18T19:54:24.186Z,11.71
2022-10-18T19:56:51.238Z,11.63
2022-10-18T19:59:18.481Z,11.53
2022-10-18T20:01:45.977Z,11.44
2022-10-18T20:04:13.545Z,11.38
2022-10-18T20:06:41.040Z,11.33
2022-10-18T20:09:11.532Z,11.28
2022-10-18T20:11:40.934Z,11.30
2022-10-18T20:14:09.813Z,11.22
2022-10-18T20:16:37.091Z,11.16
2022-10-18T20:19:07.140Z,11.09
2022-10-18T20:21:36.089Z,11.06
2022-10-18T20:24:05.054Z,11.07
2022-10-18T20:26:32.233Z,11.07
2022-10-18T20:29:00.053Z,11.01
2022-10-18T20:31:32.086Z,10.88
2022-10-18T20:34:01.737Z,10.78
2022-10-18T20:36:30.793Z,10.75
2022-10-18T20:38:57.843Z,10.73
2022-10-18T20:41:30.526Z,10.65
2022-10-18T20:44:02.711Z,10.63
2022-10-18T20:46:34.979Z,10.59
2022-10-18T20:49:02.642Z,10.58
2022-10-18T20:51:29.575Z,10.58
2022-10-18T20:53:56.730Z,10.58
2022-10-18T20:56:27.331Z,10.53
2022-10-18T20:58:56.249Z,10.47
2022-10-18T21:01:26.738Z,10.42
2022-10-18T21:03:55.937Z,10.44
2022-10-18T21:06:33.892Z,10.41
2022-10-18T21:09:04.681Z,10.36
2022-10-18T21:11:34.982Z,10.34
2022-10-18T21:14:03.053Z,10.18
2022-10-18T21:16:34.513Z,10.01
2022-10-18T21:19:10.735Z,9.81
2022-10-18T21:21:37.548Z,9.71
2022-10-18T21:24:07.152Z,9.61
2022-10-18T21:26:35.821Z,9.58
2022-10-18T21:29:03.918Z,9.57
2022-10-18T21:31:33.028Z,9.59
2022-10-18T21:34:02.282Z,9.61
2022-10-18T21:36:36.280Z,9.58
2022-10-18T21:39:05.554Z,9.54
2022-10-18T21:41:32.599Z,9.49
2022-10-18T21:43:59.824Z,9.41
2022-10-18T21:46:27.153Z,9.33
2022-10-18T21:48:55.993Z,9.30
2022-10-18T21:51:25.327Z,9.29
2022-10-18T21:53:55.278Z,9.26
2022-10-18T21:56:33.945Z,9.28
2022-10-18T21:59:02.001Z,9.34
2022-10-18T22:01:37.063Z,9.36
2022-10-18T22:04:06.866Z,9.32
2022-10-18T22:09:10.140Z,9.33
2022-10-18T22:11:49.174Z,9.36
2022-10-18T22:14:16.191Z,9.35
2022-10-18T22:16:43.271Z,9.31
2022-10-18T22:19:12.754Z,9.28
2022-10-18T22:21:40.037Z,9.23
2022-10-18T22:24:08.940Z,9.23
2022-10-18T22:26:38.248Z,9.24
2022-10-18T22:29:08.921Z,9.23
2022-10-18T22:31:39.446Z,9.22
2022-10-18T22:34:10.471Z,9.23
2022-10-18T22:36:37.774Z,9.13
2022-10-18T22:39:05.622Z,9.04
2022-10-18T22:41:33.384Z,8.96
2022-10-18T22:44:03.433Z,8.86
2022-10-18T22:46:31.718Z,8.80
2022-10-18T22:48:58.784Z,8.78
2022-10-18T22:51:25.801Z,8.74
2022-10-18T22:53:53.143Z,8.70
2022-10-18T22:56:22.900Z,8.66
2022-10-18T22:58:49.993Z,8.63
2022-10-18T23:01:19.949Z,8.59
2022-10-18T23:03:46.939Z,8.54
2022-10-18T23:06:35.879Z,8.51
2022-10-18T23:09:08.484Z,8.44
2022-10-18T23:11:36.776Z,8.40
2022-10-18T23:14:06.065Z,8.35
2022-10-18T23:16:33.495Z,8.36
2022-10-18T23:19:00.572Z,8.36
2022-10-18T23:21:28.929Z,8.34
2022-10-18T23:23:57.053Z,8.32
2022-10-18T23:26:26.296Z,8.31
2022-10-18T23:28:53.937Z,8.30
2022-10-18T23:31:24.006Z,8.30
2022-10-18T23:33:52.888Z,8.31
2022-10-18T23:36:20.239Z,8.30
2022-10-18T23:38:47.270Z,8.27
2022-10-18T23:41:15.548Z,8.26
2022-10-18T23:43:43.647Z,8.24
2022-10-18T23:46:11.860Z,8.24
2022-10-18T23:48:38.941Z,8.26
2022-10-18T23:51:06.660Z,8.25
2022-10-18T23:53:34.096Z,8.24
2022-10-18T23:56:09.593Z,8.21
2022-10-18T23:58:36.939Z,8.20
